Birjand, Iran
Current Conditions -  °F | °C
As of 5:00 PM on Sunday 25 Jan 2015 (Local Time) from OIMB Reporting Station
Clear Clear  
Wind Chill: 32°   Ceiling: Unl
Heat Index: 39°   Visibility: 6mi
Dew Point: 10°   Wind: 12mph
Humidity: 31%   Direction: 350°N
Pressure: 30.24"   Gusts: NA
Location:  32.88°N, 59.22°E
Report Text: OIMB 251400Z 35010KT CAVOK 04/M12 Q1024
Loading
Personal Weather Stations






























Interactive Weather Map New forecast layout! Learn more

10-Day Weather Forecast

Advertisements
Track Severe Weather on mobile